createdAt,value
2023-01-26T00:02:24.814Z,4.78
2023-01-26T00:04:57.793Z,5.03
2023-01-26T00:07:31.144Z,6.12
2023-01-26T00:10:04.649Z,6.37
2023-01-26T00:12:38.660Z,6.87
2023-01-26T00:15:11.611Z,6.28
2023-01-26T00:17:45.002Z,6.03
2023-01-26T00:20:18.435Z,5.95
2023-01-26T00:22:51.225Z,5.95
2023-01-26T00:25:24.285Z,6.55
2023-01-26T00:27:57.963Z,5.10
2023-01-26T00:30:30.929Z,6.65
2023-01-26T00:33:04.470Z,6.47
2023-01-26T00:35:38.599Z,6.03
2023-01-26T00:38:12.790Z,6.78
2023-01-26T00:40:46.786Z,6.20
2023-01-26T00:43:19.703Z,6.07
2023-01-26T00:45:52.474Z,5.87
2023-01-26T00:48:27.089Z,5.17
2023-01-26T00:51:00.386Z,5.85
2023-01-26T00:53:33.479Z,5.42
2023-01-26T00:56:06.978Z,5.07
2023-01-26T00:58:40.836Z,5.25
2023-01-26T01:01:13.778Z,5.87
2023-01-26T01:03:48.127Z,5.55
2023-01-26T01:06:21.458Z,5.17
2023-01-26T01:08:55.938Z,4.80
2023-01-26T01:11:28.927Z,4.00
2023-01-26T01:14:02.464Z,4.58
2023-01-26T01:16:35.427Z,5.33
2023-01-26T01:19:08.603Z,4.37
2023-01-26T01:21:41.995Z,5.45
2023-01-26T01:24:16.036Z,5.28
2023-01-26T01:26:48.791Z,5.95
2023-01-26T01:29:21.583Z,5.15
2023-01-26T01:31:55.121Z,5.65
2023-01-26T01:34:28.301Z,5.58
2023-01-26T01:37:01.815Z,5.15
2023-01-26T01:39:35.835Z,5.53
2023-01-26T01:42:08.932Z,5.72
2023-01-26T01:44:43.837Z,5.37
2023-01-26T01:47:21.736Z,5.67
2023-01-26T01:49:55.497Z,6.05
2023-01-26T01:52:31.665Z,7.28
2023-01-26T01:55:11.121Z,7.03
2023-01-26T01:57:56.623Z,6.53
2023-01-26T02:00:29.568Z,6.58
2023-01-26T02:03:14.177Z,7.03
2023-01-26T02:05:56.873Z,6.97
2023-01-26T02:11:33.392Z,6.08
2023-01-26T02:14:09.832Z,6.67
2023-01-26T02:16:43.204Z,6.90
2023-01-26T02:19:26.862Z,7.20
2023-01-26T02:22:02.751Z,5.83
2023-01-26T02:24:38.437Z,6.75
2023-01-26T02:27:11.265Z,4.50
2023-01-26T02:29:44.529Z,4.92
2023-01-26T02:32:17.926Z,5.10
2023-01-26T02:34:58.102Z,4.75
2023-01-26T02:37:30.896Z,4.78
2023-01-26T02:40:14.515Z,5.63
2023-01-26T02:42:47.314Z,6.70
2023-01-26T02:45:20.186Z,6.72
2023-01-26T02:47:53.166Z,7.25
2023-01-26T02:50:26.921Z,4.90
2023-01-26T02:53:00.531Z,5.87
2023-01-26T02:55:34.054Z,4.87
2023-01-26T02:58:08.356Z,5.50
2023-01-26T03:00:42.921Z,5.15
2023-01-26T03:03:23.172Z,4.28
2023-01-26T03:05:56.030Z,4.35
2023-01-26T03:08:29.461Z,4.53
2023-01-26T03:11:02.609Z,5.03
2023-01-26T03:13:36.096Z,5.30
2023-01-26T03:16:12.273Z,4.92
2023-01-26T03:18:47.098Z,5.20
2023-01-26T03:21:38.064Z,4.67
2023-01-26T03:24:32.119Z,4.70
2023-01-26T03:27:25.144Z,5.03
2023-01-26T03:29:59.410Z,4.78
2023-01-26T03:32:32.939Z,5.00
2023-01-26T03:35:07.458Z,5.30
2023-01-26T03:40:35.067Z,4.62
2023-01-26T03:43:28.931Z,5.33
2023-01-26T03:46:22.760Z,5.17
2023-01-26T03:49:13.776Z,5.37
2023-01-26T03:52:04.620Z,5.90
2023-01-26T03:54:56.289Z,7.00
2023-01-26T03:57:31.476Z,5.87
2023-01-26T04:00:05.051Z,7.15
2023-01-26T04:02:58.425Z,7.35
2023-01-26T04:05:50.243Z,7.80
2023-01-26T04:08:24.691Z,14.00
2023-01-26T04:10:59.109Z,11.38
2023-01-26T04:13:50.768Z,8.98
2023-01-26T04:16:43.330Z,8.35
2023-01-26T04:19:34.207Z,7.78
2023-01-26T04:22:07.967Z,7.23
2023-01-26T04:24:42.637Z,7.10
2023-01-26T04:27:15.496Z,5.65
2023-01-26T04:29:48.965Z,7.10
2023-01-26T04:32:22.282Z,5.50
2023-01-26T04:34:55.921Z,5.37
2023-01-26T04:37:29.109Z,5.72
2023-01-26T04:40:02.279Z,5.20
2023-01-26T04:42:36.818Z,6.05
2023-01-26T04:47:44.946Z,5.45
2023-01-26T04:50:18.509Z,7.95
2023-01-26T04:55:25.652Z,7.22
2023-01-26T04:57:58.742Z,8.20
2023-01-26T05:00:31.748Z,6.45
2023-01-26T05:03:08.430Z,5.80
2023-01-26T05:05:41.662Z,5.33
2023-01-26T05:08:14.484Z,5.78
2023-01-26T05:10:47.562Z,7.08
2023-01-26T05:13:25.177Z,7.85
2023-01-26T05:16:09.270Z,8.35
2023-01-26T05:19:00.405Z,10.20
2023-01-26T05:21:34.820Z,10.43
2023-01-26T05:24:08.903Z,11.13
2023-01-26T05:27:06.800Z,10.95
2023-01-26T05:29:40.584Z,11.22
2023-01-26T05:32:13.463Z,8.17
2023-01-26T05:34:47.504Z,9.05
2023-01-26T05:37:20.813Z,7.50
2023-01-26T05:39:53.675Z,9.70
2023-01-26T05:42:27.735Z,7.62
2023-01-26T05:45:06.501Z,8.63
2023-01-26T05:47:39.724Z,13.93
2023-01-26T05:52:48.017Z,10.10
2023-01-26T05:55:21.346Z,10.20
2023-01-26T05:57:54.902Z,13.58
2023-01-26T06:00:28.089Z,20.57
2023-01-26T06:03:02.589Z,22.95
2023-01-26T06:05:36.823Z,25.02
2023-01-26T06:08:11.420Z,29.77
2023-01-26T06:10:52.832Z,25.05
2023-01-26T06:13:30.571Z,25.17
2023-01-26T06:16:08.187Z,17.27
2023-01-26T06:18:42.818Z,13.45
2023-01-26T06:21:15.795Z,19.75
2023-01-26T06:23:49.150Z,20.08
2023-01-26T06:26:22.036Z,23.47
2023-01-26T06:28:55.502Z,18.02
2023-01-26T06:31:30.161Z,18.10
2023-01-26T06:34:05.835Z,20.75
2023-01-26T06:36:41.879Z,21.82
2023-01-26T06:39:17.422Z,28.03
2023-01-26T06:41:50.410Z,28.15
2023-01-26T06:44:23.406Z,29.67
2023-01-26T06:46:56.434Z,26.17
2023-01-26T06:49:29.335Z,25.72
2023-01-26T06:52:31.880Z,28.55
2023-01-26T06:55:06.879Z,19.40
2023-01-26T06:57:56.883Z,23.92
2023-01-26T07:00:40.020Z,23.22
2023-01-26T07:03:24.682Z,27.32
2023-01-26T07:05:57.726Z,28.55
2023-01-26T07:08:31.961Z,27.37
2023-01-26T07:11:08.901Z,27.52
2023-01-26T07:13:42.634Z,23.40
2023-01-26T07:16:17.708Z,11.25
2023-01-26T07:18:51.220Z,7.72
2023-01-26T07:21:24.373Z,7.58
2023-01-26T07:23:59.225Z,6.37
2023-01-26T07:26:32.055Z,4.97
2023-01-26T07:29:04.993Z,5.28
2023-01-26T07:31:38.101Z,6.67
2023-01-26T07:34:15.574Z,6.95
2023-01-26T07:36:48.851Z,6.58
2023-01-26T07:39:23.341Z,6.50
2023-01-26T07:41:56.844Z,8.25
2023-01-26T07:44:40.247Z,8.40
2023-01-26T07:47:13.095Z,6.72
2023-01-26T07:49:47.443Z,8.28
2023-01-26T07:52:20.726Z,7.72
2023-01-26T07:54:53.510Z,6.70
2023-01-26T07:57:26.906Z,7.45
2023-01-26T08:00:00.292Z,7.17
2023-01-26T08:02:33.823Z,6.20
2023-01-26T08:05:07.309Z,5.30
2023-01-26T08:07:40.215Z,5.35
2023-01-26T08:10:14.829Z,6.20
2023-01-26T08:12:47.838Z,6.05
2023-01-26T08:15:20.830Z,4.92
2023-01-26T08:17:55.246Z,3.77
2023-01-26T08:20:28.127Z,3.77
2023-01-26T08:23:01.475Z,5.10
2023-01-26T08:25:35.065Z,4.17
2023-01-26T08:28:07.951Z,5.62
2023-01-26T08:30:41.829Z,4.40
2023-01-26T08:33:14.914Z,4.42
2023-01-26T08:35:47.864Z,5.05
2023-01-26T08:38:20.632Z,7.37
2023-01-26T08:40:56.377Z,6.92
2023-01-26T08:43:29.916Z,5.75
2023-01-26T08:46:02.848Z,4.78
2023-01-26T08:48:36.478Z,4.75
2023-01-26T08:51:10.252Z,4.78
2023-01-26T08:53:42.982Z,3.70
2023-01-26T08:56:15.833Z,4.97
2023-01-26T08:58:49.201Z,5.37
2023-01-26T09:01:22.435Z,5.47
2023-01-26T09:03:57.257Z,8.75
2023-01-26T09:06:32.983Z,6.55
2023-01-26T09:09:06.541Z,4.83
2023-01-26T09:11:40.451Z,5.75
2023-01-26T09:14:13.632Z,6.60
2023-01-26T09:16:46.531Z,5.75
2023-01-26T09:19:19.749Z,4.72
2023-01-26T09:21:56.798Z,7.10
2023-01-26T09:24:29.740Z,7.62
2023-01-26T09:27:02.681Z,15.18
2023-01-26T09:29:36.106Z,14.60
2023-01-26T09:32:08.990Z,10.85
2023-01-26T09:37:17.293Z,8.18
2023-01-26T09:39:49.999Z,8.20
2023-01-26T09:42:39.080Z,8.33
2023-01-26T09:45:31.732Z,8.85
2023-01-26T09:48:54.183Z,8.45
2023-01-26T09:51:42.764Z,8.43
2023-01-26T09:54:23.529Z,7.45
2023-01-26T09:56:57.892Z,8.10
2023-01-26T09:59:41.974Z,9.85
2023-01-26T10:02:28.666Z,9.00
2023-01-26T10:05:04.588Z,11.10
2023-01-26T10:07:37.986Z,10.38
2023-01-26T10:10:30.566Z,11.38
2023-01-26T10:13:04.991Z,11.22
2023-01-26T10:18:29.461Z,10.88
2023-01-26T10:21:04.785Z,10.50
2023-01-26T10:23:38.801Z,10.75
2023-01-26T10:26:20.943Z,11.53
2023-01-26T10:28:54.951Z,11.18
2023-01-26T10:31:32.732Z,11.95
2023-01-26T10:34:26.212Z,10.95
2023-01-26T10:37:22.125Z,10.13
2023-01-26T10:40:09.194Z,12.37
2023-01-26T10:42:44.206Z,11.30
2023-01-26T10:45:35.124Z,10.40
2023-01-26T10:48:28.288Z,13.20
2023-01-26T10:51:24.410Z,13.70
2023-01-26T10:54:26.610Z,11.75
2023-01-26T10:57:24.300Z,10.40
2023-01-26T11:00:02.011Z,11.25
2023-01-26T11:02:37.817Z,9.90
2023-01-26T11:05:15.562Z,11.45
2023-01-26T11:07:55.003Z,11.65
2023-01-26T11:10:34.737Z,11.55
2023-01-26T11:13:20.545Z,10.15
2023-01-26T11:16:19.104Z,10.32
2023-01-26T11:19:09.935Z,9.43
2023-01-26T11:21:54.717Z,9.43
2023-01-26T11:24:34.994Z,11.10
2023-01-26T11:27:38.210Z,12.68
2023-01-26T11:30:44.762Z,10.70
2023-01-26T11:33:28.672Z,11.55
2023-01-26T11:36:25.611Z,11.08
2023-01-26T11:39:43.274Z,10.85
2023-01-26T11:42:38.946Z,11.18
2023-01-26T11:45:37.660Z,10.90
2023-01-26T11:48:27.192Z,11.05
2023-01-26T11:51:30.368Z,11.20
2023-01-26T11:54:38.795Z,12.13
2023-01-26T11:57:41.940Z,11.08
2023-01-26T12:00:29.990Z,11.15
2023-01-26T12:03:07.967Z,10.63
2023-01-26T12:05:47.596Z,13.03
2023-01-26T12:08:34.843Z,13.90
2023-01-26T12:11:27.614Z,10.68
2023-01-26T12:14:24.460Z,12.55
2023-01-26T12:17:27.764Z,10.53
2023-01-26T12:20:14.721Z,11.95
2023-01-26T12:22:52.189Z,12.85
2023-01-26T12:25:44.290Z,17.67
2023-01-26T12:28:24.320Z,15.15
2023-01-26T12:31:24.730Z,10.72
2023-01-26T12:34:00.064Z,14.65
2023-01-26T12:36:55.710Z,16.35
2023-01-26T12:39:47.218Z,14.05
2023-01-26T12:42:36.820Z,11.28
2023-01-26T12:45:19.930Z,12.28
2023-01-26T12:48:24.104Z,12.53
2023-01-26T12:51:01.973Z,11.05
2023-01-26T12:53:55.090Z,10.05
2023-01-26T12:56:44.531Z,13.32
2023-01-26T12:59:47.971Z,16.82
2023-01-26T13:02:31.514Z,18.48
2023-01-26T13:05:08.070Z,16.50
2023-01-26T13:07:42.591Z,14.68
2023-01-26T13:10:22.901Z,12.10
2023-01-26T13:13:21.900Z,11.08
2023-01-26T13:16:23.550Z,10.08
2023-01-26T13:18:58.932Z,12.05
2023-01-26T13:21:45.719Z,14.03
2023-01-26T13:24:23.690Z,12.93
2023-01-26T13:27:00.992Z,16.42
2023-01-26T13:29:36.281Z,23.42
2023-01-26T13:32:22.534Z,26.48
2023-01-26T13:35:05.605Z,28.25
2023-01-26T13:37:51.771Z,29.52
2023-01-26T13:40:39.027Z,30.12
2023-01-26T13:43:40.372Z,29.40
2023-01-26T13:46:29.970Z,34.00
2023-01-26T13:49:03.016Z,33.42
2023-01-26T13:51:37.643Z,32.98
2023-01-26T13:54:17.577Z,35.33
2023-01-26T13:57:08.327Z,40.65
2023-01-26T14:00:00.647Z,37.80
2023-01-26T14:02:38.976Z,39.90
2023-01-26T14:05:24.098Z,51.40
2023-01-26T14:07:57.268Z,48.55
2023-01-26T14:10:30.910Z,44.58
2023-01-26T14:13:04.846Z,45.80
2023-01-26T14:15:37.827Z,53.15
2023-01-26T14:18:15.419Z,69.07
2023-01-26T14:20:51.551Z,81.80
2023-01-26T14:23:26.591Z,99.90
2023-01-26T14:26:24.750Z,103.32
2023-01-26T14:28:57.801Z,96.20
2023-01-26T14:31:32.584Z,150.80
2023-01-26T14:34:10.425Z,97.72
2023-01-26T14:36:43.410Z,100.50
2023-01-26T14:39:21.921Z,86.25
2023-01-26T14:41:55.680Z,75.57
2023-01-26T14:44:32.616Z,74.75
2023-01-26T14:47:22.306Z,88.17
2023-01-26T14:50:14.910Z,71.57
2023-01-26T14:52:49.594Z,60.30
2023-01-26T14:55:37.448Z,58.50
2023-01-26T14:58:20.825Z,57.27
2023-01-26T15:00:54.036Z,49.15
2023-01-26T15:03:37.133Z,36.55
2023-01-26T15:06:24.132Z,30.37
2023-01-26T15:09:10.056Z,27.52
2023-01-26T15:12:01.231Z,26.00
2023-01-26T15:14:45.353Z,24.55
2023-01-26T15:17:44.447Z,22.05
2023-01-26T15:20:28.253Z,20.57
2023-01-26T15:23:01.306Z,16.45
2023-01-26T15:25:35.028Z,15.03
2023-01-26T15:28:11.674Z,14.43
2023-01-26T15:30:49.057Z,15.93
2023-01-26T15:33:44.012Z,13.80
2023-01-26T15:36:34.492Z,13.25
2023-01-26T15:39:20.237Z,11.38
2023-01-26T15:42:15.754Z,15.43
2023-01-26T15:44:49.048Z,13.88
2023-01-26T15:47:22.016Z,16.73
2023-01-26T15:49:55.061Z,39.38
2023-01-26T15:52:30.707Z,22.55
2023-01-26T15:55:05.543Z,72.45
2023-01-26T15:57:39.022Z,88.00
2023-01-26T16:00:15.707Z,92.53
2023-01-26T16:02:48.721Z,99.65
2023-01-26T16:05:24.596Z,91.25
2023-01-26T16:07:57.847Z,96.00
2023-01-26T16:10:31.345Z,86.57
2023-01-26T16:13:08.126Z,84.32
2023-01-26T16:15:51.030Z,79.10
2023-01-26T16:18:23.845Z,73.62
2023-01-26T16:20:56.875Z,72.10
2023-01-26T16:23:32.055Z,82.50
2023-01-26T16:26:06.519Z,159.32
2023-01-26T16:28:39.428Z,176.60
2023-01-26T16:31:19.098Z,135.45
2023-01-26T16:33:52.730Z,107.17
2023-01-26T16:36:26.319Z,99.00
2023-01-26T16:38:59.296Z,94.13
2023-01-26T16:44:09.326Z,99.28
2023-01-26T16:46:43.019Z,90.62
2023-01-26T16:49:17.054Z,86.28
2023-01-26T16:51:50.134Z,93.30
2023-01-26T16:54:23.541Z,102.15
2023-01-26T16:56:57.386Z,139.85
2023-01-26T17:02:03.167Z,219.57
2023-01-26T17:04:36.247Z,157.65
2023-01-26T17:07:08.956Z,162.95
2023-01-26T17:09:42.108Z,188.10
2023-01-26T17:12:15.373Z,278.77
2023-01-26T17:14:48.589Z,215.57
2023-01-26T17:17:21.993Z,228.10
2023-01-26T17:19:56.298Z,275.70
2023-01-26T17:22:31.325Z,237.48
2023-01-26T17:25:04.376Z,196.45
2023-01-26T17:27:39.050Z,180.37
2023-01-26T17:30:12.458Z,180.45
2023-01-26T17:32:46.386Z,197.47
2023-01-26T17:35:19.557Z,195.10
2023-01-26T17:37:52.397Z,177.43
2023-01-26T17:40:25.350Z,189.87
2023-01-26T17:42:58.287Z,182.65
2023-01-26T17:45:31.193Z,196.40
2023-01-26T17:48:04.252Z,200.07
2023-01-26T17:50:37.279Z,206.65
2023-01-26T17:53:10.063Z,212.87
2023-01-26T17:55:43.566Z,225.30
2023-01-26T17:58:17.053Z,214.75
2023-01-26T18:00:50.060Z,217.45
2023-01-26T18:05:58.729Z,179.90
2023-01-26T18:08:31.762Z,137.97
2023-01-26T18:11:08.309Z,127.32
2023-01-26T18:13:42.115Z,91.10
2023-01-26T18:16:18.730Z,73.02
2023-01-26T18:18:57.105Z,43.58
2023-01-26T18:21:32.365Z,42.70
2023-01-26T18:24:07.070Z,44.33
2023-01-26T18:26:41.552Z,56.68
2023-01-26T18:29:15.280Z,75.55
2023-01-26T18:34:21.236Z,168.13
2023-01-26T18:36:55.817Z,134.45
2023-01-26T18:39:29.329Z,102.67
2023-01-26T18:42:02.411Z,101.47
2023-01-26T18:44:35.568Z,93.47
2023-01-26T18:47:08.438Z,81.45
2023-01-26T18:49:41.990Z,79.85
2023-01-26T18:52:15.245Z,67.23
2023-01-26T18:54:48.577Z,55.70
2023-01-26T18:57:23.292Z,55.17
2023-01-26T18:59:57.068Z,60.88
2023-01-26T19:02:31.960Z,63.65
2023-01-26T19:05:08.412Z,77.40
2023-01-26T19:07:42.056Z,76.85
2023-01-26T19:10:15.013Z,56.92
2023-01-26T19:12:53.167Z,51.58
2023-01-26T19:15:26.975Z,50.80
2023-01-26T19:18:00.876Z,48.02
2023-01-26T19:20:33.841Z,44.90
2023-01-26T19:23:07.554Z,41.42
2023-01-26T19:25:41.656Z,44.77
2023-01-26T19:28:14.589Z,45.12
2023-01-26T19:30:47.929Z,48.50
2023-01-26T19:33:28.967Z,53.13
2023-01-26T19:36:05.135Z,68.47
2023-01-26T19:38:40.018Z,71.37
2023-01-26T19:41:13.229Z,78.05
2023-01-26T19:43:46.475Z,76.75
2023-01-26T19:46:21.637Z,66.50
2023-01-26T19:48:55.128Z,69.62
2023-01-26T19:51:29.638Z,64.82
2023-01-26T19:54:03.292Z,59.63
2023-01-26T19:56:37.332Z,55.43
2023-01-26T19:59:13.053Z,56.95
2023-01-26T20:01:47.115Z,56.30
2023-01-26T20:04:20.318Z,65.42
2023-01-26T20:06:53.356Z,67.30
2023-01-26T20:09:26.211Z,58.02
2023-01-26T20:11:59.027Z,53.20
2023-01-26T20:14:32.086Z,52.17
2023-01-26T20:17:05.610Z,51.30
2023-01-26T20:19:38.935Z,44.42
2023-01-26T20:22:12.472Z,39.42
2023-01-26T20:24:45.624Z,39.33
2023-01-26T20:27:20.354Z,40.48
2023-01-26T20:29:53.742Z,38.15
2023-01-26T20:32:27.242Z,38.58
2023-01-26T20:35:01.084Z,36.38
2023-01-26T20:37:34.276Z,34.75
2023-01-26T20:40:08.258Z,35.40
2023-01-26T20:42:42.066Z,41.88
2023-01-26T20:45:15.482Z,49.10
2023-01-26T20:47:48.443Z,50.97
2023-01-26T20:50:22.119Z,49.35
2023-01-26T20:52:55.283Z,45.65
2023-01-26T20:55:28.210Z,38.10
2023-01-26T20:58:02.652Z,29.30
2023-01-26T21:00:36.263Z,33.63
2023-01-26T21:03:09.143Z,35.35
2023-01-26T21:08:15.149Z,37.75
2023-01-26T21:10:48.429Z,32.67
2023-01-26T21:13:22.862Z,32.00
2023-01-26T21:15:56.495Z,36.10
2023-01-26T21:18:29.355Z,36.53
2023-01-26T21:21:05.749Z,28.92
2023-01-26T21:23:40.204Z,27.25
2023-01-26T21:26:16.126Z,27.87
2023-01-26T21:28:59.208Z,28.25
2023-01-26T21:31:33.992Z,29.90
2023-01-26T21:34:06.876Z,31.15
2023-01-26T21:36:40.045Z,31.10
2023-01-26T21:39:15.237Z,32.78
2023-01-26T21:41:57.344Z,36.70
2023-01-26T21:44:36.713Z,35.95
2023-01-26T21:47:10.736Z,34.98
2023-01-26T21:49:43.459Z,33.15
2023-01-26T21:52:34.182Z,31.62
2023-01-26T21:55:07.458Z,35.17
2023-01-26T21:57:58.312Z,35.30
2023-01-26T22:00:33.323Z,37.70
2023-01-26T22:03:06.774Z,45.00
2023-01-26T22:05:39.429Z,47.17
2023-01-26T22:08:12.915Z,49.55
2023-01-26T22:10:47.491Z,49.30
2023-01-26T22:13:20.661Z,54.67
2023-01-26T22:15:53.682Z,55.12
2023-01-26T22:18:27.383Z,51.33
2023-01-26T22:21:00.171Z,46.68
2023-01-26T22:23:37.715Z,48.07
2023-01-26T22:26:21.305Z,47.80
2023-01-26T22:28:59.775Z,43.42
2023-01-26T22:31:33.598Z,44.73
2023-01-26T22:34:07.153Z,44.40
2023-01-26T22:36:41.257Z,43.45
2023-01-26T22:39:14.203Z,37.50
2023-01-26T22:41:47.046Z,36.63
2023-01-26T22:44:20.035Z,37.93
2023-01-26T22:46:53.139Z,40.65
2023-01-26T22:49:26.071Z,39.23
2023-01-26T22:51:58.927Z,38.13
2023-01-26T22:54:31.805Z,37.17
2023-01-26T22:57:04.632Z,32.83
2023-01-26T22:59:38.224Z,30.48
2023-01-26T23:02:11.095Z,31.70
2023-01-26T23:04:44.370Z,30.20
2023-01-26T23:07:17.273Z,32.85
2023-01-26T23:09:50.353Z,32.43
2023-01-26T23:12:23.644Z,27.42
2023-01-26T23:14:57.099Z,26.02
2023-01-26T23:17:30.060Z,25.08
2023-01-26T23:20:03.152Z,24.37
2023-01-26T23:22:36.571Z,24.12
2023-01-26T23:25:28.042Z,27.22
2023-01-26T23:28:05.335Z,35.40
2023-01-26T23:30:38.814Z,29.37
2023-01-26T23:33:12.073Z,27.32
2023-01-26T23:35:45.618Z,27.52
2023-01-26T23:38:19.215Z,23.95
2023-01-26T23:40:53.039Z,22.00
2023-01-26T23:43:26.246Z,24.67
2023-01-26T23:45:59.845Z,21.87
2023-01-26T23:48:33.267Z,23.02
2023-01-26T23:51:10.055Z,24.30
2023-01-26T23:53:43.025Z,24.00
2023-01-26T23:56:18.417Z,21.60
2023-01-26T23:58:51.351Z,22.87
